sensor_id;sensor_type;location;lat;lon;timestamp;temperature;humidity
42099;DHT22;27758;55.900;8.516;2022-09-20T00:01:18;7.20;99.90
42099;DHT22;27758;55.900;8.516;2022-09-20T00:03:49;7.20;99.90
42099;DHT22;27758;55.900;8.516;2022-09-20T00:06:18;7.20;99.90
42099;DHT22;27758;55.900;8.516;2022-09-20T00:08:45;7.10;99.90
42099;DHT22;27758;55.900;8.516;2022-09-20T00:11:17;7.10;99.90
42099;DHT22;27758;55.900;8.516;2022-09-20T00:13:44;7.10;99.90
42099;DHT22;27758;55.900;8.516;2022-09-20T00:16:18;7.10;99.90
42099;DHT22;27758;55.900;8.516;2022-09-20T00:18:51;7.00;99.90
42099;DHT22;27758;55.900;8.516;2022-09-20T00:21:19;7.00;99.90
42099;DHT22;27758;55.900;8.516;2022-09-20T00:23:45;6.90;99.90
42099;DHT22;27758;55.900;8.516;2022-09-20T00:26:12;6.80;99.90
42099;DHT22;27758;55.900;8.516;2022-09-20T00:28:39;6.80;99.90
42099;DHT22;27758;55.900;8.516;2022-09-20T00:31:05;6.80;99.90
42099;DHT22;27758;55.900;8.516;2022-09-20T00:33:32;6.70;99.90
42099;DHT22;27758;55.900;8.516;2022-09-20T00:36:17;6.70;99.90
42099;DHT22;27758;55.900;8.516;2022-09-20T00:38:43;6.70;99.90
42099;DHT22;27758;55.900;8.516;2022-09-20T00:41:09;6.80;99.90
42099;DHT22;27758;55.900;8.516;2022-09-20T00:43:40;6.70;99.90
42099;DHT22;27758;55.900;8.516;2022-09-20T00:48:46;6.60;99.90
42099;DHT22;27758;55.900;8.516;2022-09-20T00:51:17;6.50;99.90
42099;DHT22;27758;55.900;8.516;2022-09-20T00:53:47;6.50;99.90
42099;DHT22;27758;55.900;8.516;2022-09-20T00:56:28;6.50;99.90
42099;DHT22;27758;55.900;8.516;2022-09-20T00:59:28;6.50;99.90
42099;DHT22;27758;55.900;8.516;2022-09-20T01:04:25;6.50;99.90
42099;DHT22;27758;55.900;8.516;2022-09-20T01:06:55;6.40;99.90
42099;DHT22;27758;55.900;8.516;2022-09-20T01:09:22;6.30;99.90
42099;DHT22;27758;55.900;8.516;2022-09-20T01:11:49;6.40;99.90
42099;DHT22;27758;55.900;8.516;2022-09-20T01:14:16;6.30;99.90
42099;DHT22;27758;55.900;8.516;2022-09-20T01:16:44;6.30;99.90
42099;DHT22;27758;55.900;8.516;2022-09-20T01:19:17;6.30;99.90
42099;DHT22;27758;55.900;8.516;2022-09-20T01:21:45;6.20;99.90
42099;DHT22;27758;55.900;8.516;2022-09-20T01:24:45;6.20;99.90
42099;DHT22;27758;55.900;8.516;2022-09-20T01:32:41;6.20;99.90
42099;DHT22;27758;55.900;8.516;2022-09-20T01:35:10;6.20;99.90
42099;DHT22;27758;55.900;8.516;2022-09-20T01:37:58;6.10;99.90
42099;DHT22;27758;55.900;8.516;2022-09-20T01:40:47;6.00;99.90
42099;DHT22;27758;55.900;8.516;2022-09-20T01:43:32;6.00;99.90
42099;DHT22;27758;55.900;8.516;2022-09-20T01:46:05;5.90;99.90
42099;DHT22;27758;55.900;8.516;2022-09-20T01:48:38;6.00;99.90
42099;DHT22;27758;55.900;8.516;2022-09-20T01:54:11;6.00;99.90
42099;DHT22;27758;55.900;8.516;2022-09-20T02:05:42;5.90;99.90
42099;DHT22;27758;55.900;8.516;2022-09-20T02:16:55;5.80;99.90
42099;DHT22;27758;55.900;8.516;2022-09-20T02:19:40;5.70;99.90
42099;DHT22;27758;55.900;8.516;2022-09-20T02:36:25;5.60;99.90
42099;DHT22;27758;55.900;8.516;2022-09-20T02:38:59;5.60;99.90
42099;DHT22;27758;55.900;8.516;2022-09-20T02:44:25;5.60;99.90
42099;DHT22;27758;55.900;8.516;2022-09-20T03:00:59;5.50;99.90
42099;DHT22;27758;55.900;8.516;2022-09-20T03:03:55;5.50;99.90
42099;DHT22;27758;55.900;8.516;2022-09-20T03:06:46;5.50;99.90
42099;DHT22;27758;55.900;8.516;2022-09-20T03:17:52;5.40;99.90
42099;DHT22;27758;55.900;8.516;2022-09-20T03:26:40;5.50;99.90
42099;DHT22;27758;55.900;8.516;2022-09-20T03:29:12;5.40;99.90
42099;DHT22;27758;55.900;8.516;2022-09-20T03:32:27;5.30;99.90
42099;DHT22;27758;55.900;8.516;2022-09-20T03:37:28;5.30;99.90
42099;DHT22;27758;55.900;8.516;2022-09-20T03:40:47;5.30;99.90
42099;DHT22;27758;55.900;8.516;2022-09-20T03:48:33;5.20;99.90
42099;DHT22;27758;55.900;8.516;2022-09-20T03:54:22;5.20;99.90
42099;DHT22;27758;55.900;8.516;2022-09-20T04:05:09;5.10;99.90
42099;DHT22;27758;55.900;8.516;2022-09-20T04:10:32;5.10;99.90
42099;DHT22;27758;55.900;8.516;2022-09-20T04:27:17;5.00;99.90
42099;DHT22;27758;55.900;8.516;2022-09-20T04:29:58;4.90;99.90
42099;DHT22;27758;55.900;8.516;2022-09-20T04:32:41;4.90;99.90
42099;DHT22;27758;55.900;8.516;2022-09-20T04:38:08;5.00;99.90
42099;DHT22;27758;55.900;8.516;2022-09-20T04:52:40;4.90;99.90
42099;DHT22;27758;55.900;8.516;2022-09-20T05:00:21;4.90;99.90
42099;DHT22;27758;55.900;8.516;2022-09-20T05:23:18;4.80;99.90
42099;DHT22;27758;55.900;8.516;2022-09-20T05:31:20;5.00;99.90
42099;DHT22;27758;55.900;8.516;2022-09-20T05:34:00;4.90;99.90
42099;DHT22;27758;55.900;8.516;2022-09-20T05:36:30;5.00;99.90
42099;DHT22;27758;55.900;8.516;2022-09-20T05:39:15;5.00;99.90
42099;DHT22;27758;55.900;8.516;2022-09-20T05:50:04;5.30;99.90
42099;DHT22;27758;55.900;8.516;2022-09-20T05:53:01;5.50;99.90
42099;DHT22;27758;55.900;8.516;2022-09-20T06:03:43;6.10;99.90
42099;DHT22;27758;55.900;8.516;2022-09-20T06:06:28;6.20;99.90
42099;DHT22;27758;55.900;8.516;2022-09-20T06:17:37;6.70;99.90
42099;DHT22;27758;55.900;8.516;2022-09-20T06:20:33;6.90;99.90
42099;DHT22;27758;55.900;8.516;2022-09-20T06:23:02;7.10;99.90
42099;DHT22;27758;55.900;8.516;2022-09-20T06:25:46;7.30;99.90
42099;DHT22;27758;55.900;8.516;2022-09-20T06:28:16;7.50;99.90
42099;DHT22;27758;55.900;8.516;2022-09-20T06:30:47;7.70;99.90
42099;DHT22;27758;55.900;8.516;2022-09-20T06:41:08;8.70;99.90
42099;DHT22;27758;55.900;8.516;2022-09-20T06:44:02;9.00;99.90
42099;DHT22;27758;55.900;8.516;2022-09-20T06:46:34;9.30;99.90
42099;DHT22;27758;55.900;8.516;2022-09-20T06:49:01;9.50;99.90
42099;DHT22;27758;55.900;8.516;2022-09-20T06:51:34;9.80;99.90
42099;DHT22;27758;55.900;8.516;2022-09-20T06:54:00;10.00;99.90
42099;DHT22;27758;55.900;8.516;2022-09-20T06:56:28;10.20;99.90
42099;DHT22;27758;55.900;8.516;2022-09-20T06:58:55;10.40;99.90
42099;DHT22;27758;55.900;8.516;2022-09-20T07:01:21;10.70;99.90
42099;DHT22;27758;55.900;8.516;2022-09-20T07:03:47;11.00;99.90
42099;DHT22;27758;55.900;8.516;2022-09-20T07:06:13;11.20;99.90
42099;DHT22;27758;55.900;8.516;2022-09-20T07:08:45;11.50;99.90
42099;DHT22;27758;55.900;8.516;2022-09-20T07:11:14;11.90;99.90
42099;DHT22;27758;55.900;8.516;2022-09-20T07:13:43;12.20;99.90
42099;DHT22;27758;55.900;8.516;2022-09-20T07:16:12;12.60;99.90
42099;DHT22;27758;55.900;8.516;2022-09-20T07:18:38;12.70;99.90
42099;DHT22;27758;55.900;8.516;2022-09-20T07:21:08;13.10;99.90
42099;DHT22;27758;55.900;8.516;2022-09-20T07:23:35;13.50;99.90
42099;DHT22;27758;55.900;8.516;2022-09-20T07:26:01;13.90;99.90
42099;DHT22;27758;55.900;8.516;2022-09-20T07:28:29;14.30;99.90
42099;DHT22;27758;55.900;8.516;2022-09-20T07:30:55;14.60;99.90
42099;DHT22;27758;55.900;8.516;2022-09-20T07:33:21;14.90;99.90
42099;DHT22;27758;55.900;8.516;2022-09-20T07:35:47;15.20;99.90
42099;DHT22;27758;55.900;8.516;2022-09-20T07:38:14;15.50;99.90
42099;DHT22;27758;55.900;8.516;2022-09-20T07:40:40;15.70;99.90
42099;DHT22;27758;55.900;8.516;2022-09-20T07:43:06;16.00;99.90
42099;DHT22;27758;55.900;8.516;2022-09-20T07:45:33;16.20;99.90
42099;DHT22;27758;55.900;8.516;2022-09-20T07:48:03;16.50;99.90
42099;DHT22;27758;55.900;8.516;2022-09-20T07:50:31;16.90;99.90
42099;DHT22;27758;55.900;8.516;2022-09-20T07:52:57;17.20;99.90
42099;DHT22;27758;55.900;8.516;2022-09-20T07:55:23;17.40;99.90
42099;DHT22;27758;55.900;8.516;2022-09-20T07:57:48;17.50;99.90
42099;DHT22;27758;55.900;8.516;2022-09-20T08:00:16;17.70;99.90
42099;DHT22;27758;55.900;8.516;2022-09-20T08:02:42;17.90;99.90
42099;DHT22;27758;55.900;8.516;2022-09-20T08:05:10;18.20;99.90
42099;DHT22;27758;55.900;8.516;2022-09-20T08:07:36;18.30;99.90
42099;DHT22;27758;55.900;8.516;2022-09-20T08:10:04;18.60;99.90
42099;DHT22;27758;55.900;8.516;2022-09-20T08:12:30;18.80;99.90
42099;DHT22;27758;55.900;8.516;2022-09-20T08:14:57;19.10;99.90
42099;DHT22;27758;55.900;8.516;2022-09-20T08:17:23;19.40;99.90
42099;DHT22;27758;55.900;8.516;2022-09-20T08:19:49;19.50;99.90
42099;DHT22;27758;55.900;8.516;2022-09-20T08:22:17;19.70;99.90
42099;DHT22;27758;55.900;8.516;2022-09-20T08:24:43;19.60;99.90
42099;DHT22;27758;55.900;8.516;2022-09-20T08:27:09;19.80;99.90
42099;DHT22;27758;55.900;8.516;2022-09-20T08:29:34;20.00;99.90
42099;DHT22;27758;55.900;8.516;2022-09-20T08:32:00;20.00;99.90
42099;DHT22;27758;55.900;8.516;2022-09-20T08:34:27;20.10;99.90
42099;DHT22;27758;55.900;8.516;2022-09-20T08:36:53;20.30;99.90
42099;DHT22;27758;55.900;8.516;2022-09-20T08:39:21;20.30;99.90
42099;DHT22;27758;55.900;8.516;2022-09-20T08:44:33;20.60;99.90
42099;DHT22;27758;55.900;8.516;2022-09-20T08:47:13;20.90;99.90
42099;DHT22;27758;55.900;8.516;2022-09-20T08:49:41;20.70;99.90
42099;DHT22;27758;55.900;8.516;2022-09-20T08:52:13;21.10;99.90
42099;DHT22;27758;55.900;8.516;2022-09-20T08:54:40;21.30;99.90
42099;DHT22;27758;55.900;8.516;2022-09-20T08:57:16;21.30;99.90
42099;DHT22;27758;55.900;8.516;2022-09-20T08:59:43;21.00;99.90
42099;DHT22;27758;55.900;8.516;2022-09-20T09:02:17;21.20;99.90
42099;DHT22;27758;55.900;8.516;2022-09-20T09:04:44;21.30;99.90
42099;DHT22;27758;55.900;8.516;2022-09-20T09:07:12;21.50;99.90
42099;DHT22;27758;55.900;8.516;2022-09-20T09:09:41;21.50;99.90
42099;DHT22;27758;55.900;8.516;2022-09-20T09:12:24;21.40;99.90
42099;DHT22;27758;55.900;8.516;2022-09-20T09:14:52;21.70;99.90
42099;DHT22;27758;55.900;8.516;2022-09-20T09:17:27;21.90;99.90
42099;DHT22;27758;55.900;8.516;2022-09-20T09:19:56;22.10;99.90
42099;DHT22;27758;55.900;8.516;2022-09-20T09:22:42;21.90;99.90
42099;DHT22;27758;55.900;8.516;2022-09-20T09:30:32;22.00;99.90
42099;DHT22;27758;55.900;8.516;2022-09-20T09:35:56;22.30;99.90
42099;DHT22;27758;55.900;8.516;2022-09-20T09:38:28;22.40;99.90
42099;DHT22;27758;55.900;8.516;2022-09-20T09:40:57;22.50;99.90
42099;DHT22;27758;55.900;8.516;2022-09-20T09:43:27;22.60;99.90
42099;DHT22;27758;55.900;8.516;2022-09-20T09:45:57;22.90;99.90
42099;DHT22;27758;55.900;8.516;2022-09-20T09:48:40;23.00;99.90
42099;DHT22;27758;55.900;8.516;2022-09-20T09:51:12;23.20;99.90
42099;DHT22;27758;55.900;8.516;2022-09-20T09:53:41;22.90;99.90
42099;DHT22;27758;55.900;8.516;2022-09-20T09:59:27;23.30;99.60
42099;DHT22;27758;55.900;8.516;2022-09-20T10:04:51;22.90;99.90
42099;DHT22;27758;55.900;8.516;2022-09-20T10:07:54;22.90;99.70
42099;DHT22;27758;55.900;8.516;2022-09-20T10:10:30;23.00;99.40
42099;DHT22;27758;55.900;8.516;2022-09-20T10:13:23;22.80;98.90
42099;DHT22;27758;55.900;8.516;2022-09-20T10:16:20;22.70;99.90
42099;DHT22;27758;55.900;8.516;2022-09-20T10:19:07;23.20;99.70
42099;DHT22;27758;55.900;8.516;2022-09-20T10:21:59;23.70;98.80
42099;DHT22;27758;55.900;8.516;2022-09-20T10:31:04;24.10;97.70
42099;DHT22;27758;55.900;8.516;2022-09-20T10:33:20;24.60;98.20
42099;DHT22;27758;55.900;8.516;2022-09-20T10:38:57;23.50;97.80
42099;DHT22;27758;55.900;8.516;2022-09-20T11:03:17;24.10;97.20
42099;DHT22;27758;55.900;8.516;2022-09-20T11:06:31;24.50;97.10
42099;DHT22;27758;55.900;8.516;2022-09-20T11:09:04;24.40;97.00
42099;DHT22;27758;55.900;8.516;2022-09-20T11:14:50;24.30;96.80
42099;DHT22;27758;55.900;8.516;2022-09-20T11:20:06;23.00;95.90
42099;DHT22;27758;55.900;8.516;2022-09-20T11:22:43;22.80;97.00
42099;DHT22;27758;55.900;8.516;2022-09-20T11:25:20;22.60;94.20
42099;DHT22;27758;55.900;8.516;2022-09-20T11:27:52;22.40;95.10
42099;DHT22;27758;55.900;8.516;2022-09-20T11:30:21;22.90;96.40
42099;DHT22;27758;55.900;8.516;2022-09-20T11:32:55;23.50;97.80
42099;DHT22;27758;55.900;8.516;2022-09-20T11:35:28;24.20;95.90
42099;DHT22;27758;55.900;8.516;2022-09-20T11:38:07;24.40;95.20
42099;DHT22;27758;55.900;8.516;2022-09-20T11:40:44;24.70;94.20
42099;DHT22;27758;55.900;8.516;2022-09-20T11:43:12;24.30;95.10
42099;DHT22;27758;55.900;8.516;2022-09-20T11:45:40;23.50;95.00
42099;DHT22;27758;55.900;8.516;2022-09-20T11:50:57;22.50;96.30
42099;DHT22;27758;55.900;8.516;2022-09-20T11:56:22;23.70;96.10
42099;DHT22;27758;55.900;8.516;2022-09-20T11:58:55;24.00;95.30
42099;DHT22;27758;55.900;8.516;2022-09-20T12:01:33;23.40;95.10
42099;DHT22;27758;55.900;8.516;2022-09-20T12:04:19;23.30;96.20
42099;DHT22;27758;55.900;8.516;2022-09-20T12:07:18;23.80;95.70
42099;DHT22;27758;55.900;8.516;2022-09-20T12:09:55;24.10;95.60
42099;DHT22;27758;55.900;8.516;2022-09-20T12:12:32;24.30;95.40
42099;DHT22;27758;55.900;8.516;2022-09-20T12:15:05;24.50;95.30
42099;DHT22;27758;55.900;8.516;2022-09-20T12:21:02;25.70;95.00
42099;DHT22;27758;55.900;8.516;2022-09-20T12:28:52;25.00;93.30
42099;DHT22;27758;55.900;8.516;2022-09-20T12:39:20;25.20;94.60
42099;DHT22;27758;55.900;8.516;2022-09-20T12:42:02;25.00;94.20
42099;DHT22;27758;55.900;8.516;2022-09-20T12:49:42;24.40;95.20
42099;DHT22;27758;55.900;8.516;2022-09-20T13:03:45;22.80;96.20
42099;DHT22;27758;55.900;8.516;2022-09-20T13:09:02;22.80;95.60
42099;DHT22;27758;55.900;8.516;2022-09-20T13:14:28;23.20;95.20
42099;DHT22;27758;55.900;8.516;2022-09-20T13:19:42;23.30;94.00
42099;DHT22;27758;55.900;8.516;2022-09-20T13:22:27;22.90;94.00
42099;DHT22;27758;55.900;8.516;2022-09-20T13:25:00;22.70;94.30
42099;DHT22;27758;55.900;8.516;2022-09-20T13:27:34;22.80;95.20
42099;DHT22;27758;55.900;8.516;2022-09-20T13:32:42;22.40;94.70
42099;DHT22;27758;55.900;8.516;2022-09-20T13:35:18;22.20;94.00
42099;DHT22;27758;55.900;8.516;2022-09-20T13:38:02;22.10;94.10
42099;DHT22;27758;55.900;8.516;2022-09-20T13:40:37;21.60;94.50
42099;DHT22;27758;55.900;8.516;2022-09-20T13:43:17;21.00;94.90
42099;DHT22;27758;55.900;8.516;2022-09-20T13:45:54;20.70;95.50
42099;DHT22;27758;55.900;8.516;2022-09-20T13:48:28;20.90;94.80
42099;DHT22;27758;55.900;8.516;2022-09-20T13:50:55;21.20;95.20
42099;DHT22;27758;55.900;8.516;2022-09-20T13:53:24;21.20;94.90
42099;DHT22;27758;55.900;8.516;2022-09-20T13:55:51;21.20;94.50
42099;DHT22;27758;55.900;8.516;2022-09-20T14:00:52;21.50;94.50
42099;DHT22;27758;55.900;8.516;2022-09-20T14:03:19;21.50;95.20
42099;DHT22;27758;55.900;8.516;2022-09-20T14:06:00;21.40;95.20
42099;DHT22;27758;55.900;8.516;2022-09-20T14:08:36;21.40;95.00
42099;DHT22;27758;55.900;8.516;2022-09-20T14:13:42;21.40;93.70
42099;DHT22;27758;55.900;8.516;2022-09-20T14:16:09;21.30;94.70
42099;DHT22;27758;55.900;8.516;2022-09-20T14:18:37;20.90;94.60
42099;DHT22;27758;55.900;8.516;2022-09-20T14:21:06;20.80;93.40
42099;DHT22;27758;55.900;8.516;2022-09-20T14:23:54;20.80;94.90
42099;DHT22;27758;55.900;8.516;2022-09-20T14:26:35;20.90;94.30
42099;DHT22;27758;55.900;8.516;2022-09-20T14:32:23;20.80;93.90
42099;DHT22;27758;55.900;8.516;2022-09-20T14:34:55;20.80;93.70
42099;DHT22;27758;55.900;8.516;2022-09-20T14:37:44;20.70;94.30
42099;DHT22;27758;55.900;8.516;2022-09-20T14:42:46;20.80;93.80
42099;DHT22;27758;55.900;8.516;2022-09-20T14:45:35;20.50;93.60
42099;DHT22;27758;55.900;8.516;2022-09-20T14:50:43;20.00;94.70
42099;DHT22;27758;55.900;8.516;2022-09-20T14:55:40;20.20;94.60
42099;DHT22;27758;55.900;8.516;2022-09-20T14:58:18;20.30;93.50
42099;DHT22;27758;55.900;8.516;2022-09-20T15:00:57;20.30;94.00
42099;DHT22;27758;55.900;8.516;2022-09-20T15:06:01;20.10;93.70
42099;DHT22;27758;55.900;8.516;2022-09-20T15:08:28;20.10;94.00
42099;DHT22;27758;55.900;8.516;2022-09-20T15:10:54;20.10;93.90
42099;DHT22;27758;55.900;8.516;2022-09-20T15:13:19;20.00;93.00
42099;DHT22;27758;55.900;8.516;2022-09-20T15:15:50;19.90;94.40
42099;DHT22;27758;55.900;8.516;2022-09-20T15:18:41;19.80;94.00
42099;DHT22;27758;55.900;8.516;2022-09-20T15:21:05;19.90;93.30
42099;DHT22;27758;55.900;8.516;2022-09-20T15:23:32;19.90;94.40
42099;DHT22;27758;55.900;8.516;2022-09-20T15:25:58;20.00;93.90
42099;DHT22;27758;55.900;8.516;2022-09-20T15:28:24;19.90;93.70
42099;DHT22;27758;55.900;8.516;2022-09-20T15:30:51;19.70;94.40
42099;DHT22;27758;55.900;8.516;2022-09-20T15:33:19;19.50;93.90
42099;DHT22;27758;55.900;8.516;2022-09-20T15:35:45;19.30;93.40
42099;DHT22;27758;55.900;8.516;2022-09-20T15:38:12;18.90;94.10
42099;DHT22;27758;55.900;8.516;2022-09-20T15:40:39;18.70;94.20
42099;DHT22;27758;55.900;8.516;2022-09-20T15:43:05;18.70;94.90
42099;DHT22;27758;55.900;8.516;2022-09-20T15:45:33;18.90;95.40
42099;DHT22;27758;55.900;8.516;2022-09-20T15:47:59;18.90;95.40
42099;DHT22;27758;55.900;8.516;2022-09-20T15:50:25;19.00;95.50
42099;DHT22;27758;55.900;8.516;2022-09-20T15:52:51;18.90;95.10
42099;DHT22;27758;55.900;8.516;2022-09-20T15:55:17;18.70;95.50
42099;DHT22;27758;55.900;8.516;2022-09-20T15:57:44;18.60;95.50
42099;DHT22;27758;55.900;8.516;2022-09-20T16:00:10;18.50;95.90
42099;DHT22;27758;55.900;8.516;2022-09-20T16:02:36;18.50;95.50
42099;DHT22;27758;55.900;8.516;2022-09-20T16:05:02;18.40;95.30
42099;DHT22;27758;55.900;8.516;2022-09-20T16:07:28;18.20;95.50
42099;DHT22;27758;55.900;8.516;2022-09-20T16:09:55;18.10;95.80
42099;DHT22;27758;55.900;8.516;2022-09-20T16:12:22;17.90;96.00
42099;DHT22;27758;55.900;8.516;2022-09-20T16:14:48;17.80;95.90
42099;DHT22;27758;55.900;8.516;2022-09-20T16:17:14;17.80;96.20
42099;DHT22;27758;55.900;8.516;2022-09-20T16:19:40;17.70;97.20
42099;DHT22;27758;55.900;8.516;2022-09-20T16:22:07;17.60;97.20
42099;DHT22;27758;55.900;8.516;2022-09-20T16:24:34;17.50;96.60
42099;DHT22;27758;55.900;8.516;2022-09-20T16:27:02;17.40;96.70
42099;DHT22;27758;55.900;8.516;2022-09-20T16:29:29;17.20;98.20
42099;DHT22;27758;55.900;8.516;2022-09-20T16:31:56;17.30;96.90
42099;DHT22;27758;55.900;8.516;2022-09-20T16:36:54;17.00;97.60
42099;DHT22;27758;55.900;8.516;2022-09-20T16:39:21;16.90;97.90
42099;DHT22;27758;55.900;8.516;2022-09-20T16:41:54;16.70;98.50
42099;DHT22;27758;55.900;8.516;2022-09-20T16:44:22;16.70;98.30
42099;DHT22;27758;55.900;8.516;2022-09-20T16:46:48;16.60;98.10
42099;DHT22;27758;55.900;8.516;2022-09-20T16:49:14;16.40;98.50
42099;DHT22;27758;55.900;8.516;2022-09-20T16:51:41;16.30;99.00
42099;DHT22;27758;55.900;8.516;2022-09-20T16:54:14;16.20;99.90
42099;DHT22;27758;55.900;8.516;2022-09-20T16:56:42;16.00;99.90
42099;DHT22;27758;55.900;8.516;2022-09-20T16:59:09;16.00;99.90
42099;DHT22;27758;55.900;8.516;2022-09-20T17:01:36;15.80;99.90
42099;DHT22;27758;55.900;8.516;2022-09-20T17:04:03;15.70;99.90
42099;DHT22;27758;55.900;8.516;2022-09-20T17:06:34;15.80;99.90
42099;DHT22;27758;55.900;8.516;2022-09-20T17:09:02;15.50;99.90
42099;DHT22;27758;55.900;8.516;2022-09-20T17:11:30;15.40;99.90
42099;DHT22;27758;55.900;8.516;2022-09-20T17:13:56;15.30;99.90
42099;DHT22;27758;55.900;8.516;2022-09-20T17:16:24;15.10;99.90
42099;DHT22;27758;55.900;8.516;2022-09-20T17:21:24;14.90;99.90
42099;DHT22;27758;55.900;8.516;2022-09-20T17:23:52;14.80;99.90
42099;DHT22;27758;55.900;8.516;2022-09-20T17:26:23;14.70;99.90
42099;DHT22;27758;55.900;8.516;2022-09-20T17:28:51;14.60;99.90
42099;DHT22;27758;55.900;8.516;2022-09-20T17:31:20;14.50;99.90
42099;DHT22;27758;55.900;8.516;2022-09-20T17:33:47;14.30;99.90
42099;DHT22;27758;55.900;8.516;2022-09-20T17:36:15;14.30;99.90
42099;DHT22;27758;55.900;8.516;2022-09-20T17:38:44;14.10;99.90
42099;DHT22;27758;55.900;8.516;2022-09-20T17:41:16;14.10;99.90
42099;DHT22;27758;55.900;8.516;2022-09-20T17:43:43;14.00;99.90
42099;DHT22;27758;55.900;8.516;2022-09-20T17:46:16;13.80;99.90
42099;DHT22;27758;55.900;8.516;2022-09-20T17:48:53;13.70;99.90
42099;DHT22;27758;55.900;8.516;2022-09-20T17:51:22;13.60;99.90
42099;DHT22;27758;55.900;8.516;2022-09-20T17:53:50;13.50;99.90
42099;DHT22;27758;55.900;8.516;2022-09-20T17:56:16;13.30;99.90
42099;DHT22;27758;55.900;8.516;2022-09-20T17:58:42;13.20;99.90
42099;DHT22;27758;55.900;8.516;2022-09-20T18:01:14;13.20;99.90
42099;DHT22;27758;55.900;8.516;2022-09-20T18:03:42;13.10;99.90
42099;DHT22;27758;55.900;8.516;2022-09-20T18:06:16;13.00;99.90
42099;DHT22;27758;55.900;8.516;2022-09-20T18:08:50;12.90;99.90
42099;DHT22;27758;55.900;8.516;2022-09-20T18:11:19;12.80;99.90
42099;DHT22;27758;55.900;8.516;2022-09-20T18:13:45;12.60;99.90
42099;DHT22;27758;55.900;8.516;2022-09-20T18:16:13;12.60;99.90
42099;DHT22;27758;55.900;8.516;2022-09-20T18:18:41;12.50;99.90
42099;DHT22;27758;55.900;8.516;2022-09-20T18:21:17;12.40;99.90
42099;DHT22;27758;55.900;8.516;2022-09-20T18:23:44;12.30;99.90
42099;DHT22;27758;55.900;8.516;2022-09-20T18:26:14;12.20;99.90
42099;DHT22;27758;55.900;8.516;2022-09-20T18:31:15;12.00;99.90
42099;DHT22;27758;55.900;8.516;2022-09-20T18:33:42;11.90;99.90
42099;DHT22;27758;55.900;8.516;2022-09-20T18:36:08;11.80;99.90
42099;DHT22;27758;55.900;8.516;2022-09-20T18:38:34;11.70;99.90
42099;DHT22;27758;55.900;8.516;2022-09-20T18:41:00;11.70;99.90
42099;DHT22;27758;55.900;8.516;2022-09-20T18:43:28;11.60;99.90
42099;DHT22;27758;55.900;8.516;2022-09-20T18:45:58;11.50;99.90
42099;DHT22;27758;55.900;8.516;2022-09-20T18:48:26;11.50;99.90
42099;DHT22;27758;55.900;8.516;2022-09-20T18:53:30;11.30;99.90
42099;DHT22;27758;55.900;8.516;2022-09-20T18:56:20;11.30;99.90
42099;DHT22;27758;55.900;8.516;2022-09-20T18:58:58;11.20;99.90
42099;DHT22;27758;55.900;8.516;2022-09-20T19:09:58;10.90;99.90
42099;DHT22;27758;55.900;8.516;2022-09-20T19:12:38;10.80;99.90
42099;DHT22;27758;55.900;8.516;2022-09-20T19:23:48;10.30;99.90
42099;DHT22;27758;55.900;8.516;2022-09-20T19:28:51;10.20;99.90
42099;DHT22;27758;55.900;8.516;2022-09-20T19:31:25;10.10;99.90
42099;DHT22;27758;55.900;8.516;2022-09-20T19:33:52;10.00;99.90
42099;DHT22;27758;55.900;8.516;2022-09-20T19:36:40;10.00;99.90
42099;DHT22;27758;55.900;8.516;2022-09-20T19:44:48;9.70;99.90
42099;DHT22;27758;55.900;8.516;2022-09-20T19:47:25;9.70;99.90
42099;DHT22;27758;55.900;8.516;2022-09-20T19:49:53;9.60;99.90
42099;DHT22;27758;55.900;8.516;2022-09-20T19:52:21;9.60;99.90
42099;DHT22;27758;55.900;8.516;2022-09-20T19:54:51;9.50;99.90
42099;DHT22;27758;55.900;8.516;2022-09-20T19:57:31;9.50;99.90
42099;DHT22;27758;55.900;8.516;2022-09-20T20:00:00;9.50;99.90
42099;DHT22;27758;55.900;8.516;2022-09-20T20:02:26;9.30;99.90
42099;DHT22;27758;55.900;8.516;2022-09-20T20:04:51;9.20;99.90
42099;DHT22;27758;55.900;8.516;2022-09-20T20:07:31;9.20;99.90
42099;DHT22;27758;55.900;8.516;2022-09-20T20:15:39;9.10;99.90
42099;DHT22;27758;55.900;8.516;2022-09-20T20:20:48;9.00;99.90
42099;DHT22;27758;55.900;8.516;2022-09-20T20:26:06;8.90;99.90
42099;DHT22;27758;55.900;8.516;2022-09-20T20:28:32;8.90;99.90
42099;DHT22;27758;55.900;8.516;2022-09-20T20:30:59;8.80;99.90
42099;DHT22;27758;55.900;8.516;2022-09-20T20:33:27;8.70;99.90
42099;DHT22;27758;55.900;8.516;2022-09-20T20:35:54;8.70;99.90
42099;DHT22;27758;55.900;8.516;2022-09-20T20:38:21;8.60;99.90
42099;DHT22;27758;55.900;8.516;2022-09-20T20:41:01;8.60;99.90
42099;DHT22;27758;55.900;8.516;2022-09-20T20:43:34;8.60;99.90
42099;DHT22;27758;55.900;8.516;2022-09-20T20:46:02;8.50;99.90
42099;DHT22;27758;55.900;8.516;2022-09-20T20:48:28;8.50;99.90
42099;DHT22;27758;55.900;8.516;2022-09-20T20:53:35;8.40;99.90
42099;DHT22;27758;55.900;8.516;2022-09-20T20:56:09;8.30;99.90
42099;DHT22;27758;55.900;8.516;2022-09-20T20:58:36;8.20;99.90
42099;DHT22;27758;55.900;8.516;2022-09-20T21:03:38;8.20;99.90
42099;DHT22;27758;55.900;8.516;2022-09-20T21:06:04;8.10;99.90
42099;DHT22;27758;55.900;8.516;2022-09-20T21:08:31;8.10;99.90
42099;DHT22;27758;55.900;8.516;2022-09-20T21:11:02;8.10;99.90
42099;DHT22;27758;55.900;8.516;2022-09-20T21:13:28;8.10;99.90
42099;DHT22;27758;55.900;8.516;2022-09-20T21:16:13;8.10;99.90
42099;DHT22;27758;55.900;8.516;2022-09-20T21:18:41;8.00;99.90
42099;DHT22;27758;55.900;8.516;2022-09-20T21:23:47;7.90;99.90
42099;DHT22;27758;55.900;8.516;2022-09-20T21:26:14;7.90;99.90
42099;DHT22;27758;55.900;8.516;2022-09-20T21:29:00;7.80;99.90
42099;DHT22;27758;55.900;8.516;2022-09-20T21:31:28;7.80;99.90
42099;DHT22;27758;55.900;8.516;2022-09-20T21:33:54;7.80;99.90
42099;DHT22;27758;55.900;8.516;2022-09-20T21:36:22;7.80;99.90
42099;DHT22;27758;55.900;8.516;2022-09-20T21:38:48;7.80;99.90
42099;DHT22;27758;55.900;8.516;2022-09-20T21:41:17;7.80;99.90
42099;DHT22;27758;55.900;8.516;2022-09-20T21:43:44;7.80;99.90
42099;DHT22;27758;55.900;8.516;2022-09-20T21:46:15;7.70;99.90
42099;DHT22;27758;55.900;8.516;2022-09-20T21:48:42;7.70;99.90
42099;DHT22;27758;55.900;8.516;2022-09-20T21:51:10;7.70;99.90
42099;DHT22;27758;55.900;8.516;2022-09-20T21:53:36;7.60;99.90
42099;DHT22;27758;55.900;8.516;2022-09-20T21:56:04;7.60;99.90
42099;DHT22;27758;55.900;8.516;2022-09-20T21:58:31;7.50;99.90
42099;DHT22;27758;55.900;8.516;2022-09-20T22:01:02;7.40;99.90
42099;DHT22;27758;55.900;8.516;2022-09-20T22:03:30;7.30;99.90
42099;DHT22;27758;55.900;8.516;2022-09-20T22:06:12;7.20;99.90
42099;DHT22;27758;55.900;8.516;2022-09-20T22:08:40;7.20;99.90
42099;DHT22;27758;55.900;8.516;2022-09-20T22:11:08;7.20;99.90
42099;DHT22;27758;55.900;8.516;2022-09-20T22:13:37;7.10;99.90
42099;DHT22;27758;55.900;8.516;2022-09-20T22:16:05;7.10;99.90